createdAt,value
2023-04-30T00:02:20.253Z,6.85
2023-04-30T00:04:47.456Z,7.32
2023-04-30T00:07:14.662Z,7.10
2023-04-30T00:09:41.620Z,7.75
2023-04-30T00:12:08.649Z,7.10
2023-04-30T00:14:36.583Z,6.20
2023-04-30T00:17:03.675Z,6.95
2023-04-30T00:19:30.702Z,6.78
2023-04-30T00:21:57.505Z,6.57
2023-04-30T00:24:24.495Z,6.95
2023-04-30T00:26:51.298Z,7.50
2023-04-30T00:29:18.174Z,6.82
2023-04-30T00:31:45.082Z,6.43
2023-04-30T00:34:12.069Z,5.97
2023-04-30T00:36:46.228Z,6.97
2023-04-30T00:39:13.340Z,6.97
2023-04-30T00:41:41.491Z,6.43
2023-04-30T00:44:08.628Z,7.20
2023-04-30T00:46:35.839Z,7.10
2023-04-30T00:49:05.233Z,7.68
2023-04-30T00:51:33.476Z,7.43
2023-04-30T00:54:03.670Z,6.97
2023-04-30T00:56:31.924Z,6.93
2023-04-30T00:58:59.768Z,7.05
2023-04-30T01:01:29.173Z,6.82
2023-04-30T01:03:56.466Z,6.50
2023-04-30T01:06:25.706Z,7.65
2023-04-30T01:08:53.454Z,7.10
2023-04-30T01:11:38.548Z,7.38
2023-04-30T01:14:37.128Z,7.25
2023-04-30T01:17:06.624Z,7.40
2023-04-30T01:19:44.575Z,7.70
2023-04-30T01:22:27.198Z,7.97
2023-04-30T01:24:54.805Z,7.15
2023-04-30T01:27:43.459Z,7.05
2023-04-30T01:30:12.029Z,6.82
2023-04-30T01:32:38.931Z,6.95
2023-04-30T01:35:06.224Z,7.45
2023-04-30T01:38:00.239Z,6.82
2023-04-30T01:40:50.015Z,8.00
2023-04-30T01:43:35.785Z,7.50
2023-04-30T01:46:17.836Z,7.28
2023-04-30T01:49:09.317Z,8.13
2023-04-30T01:54:27.855Z,7.70
2023-04-30T01:57:05.014Z,7.15
2023-04-30T01:59:38.538Z,6.47
2023-04-30T02:02:06.871Z,5.38
2023-04-30T02:04:33.972Z,6.00
2023-04-30T02:07:01.243Z,6.38
2023-04-30T02:09:28.111Z,6.47
2023-04-30T02:11:54.892Z,6.47
2023-04-30T02:14:21.880Z,6.57
2023-04-30T02:16:52.514Z,5.85
2023-04-30T02:19:19.415Z,6.68
2023-04-30T02:21:46.559Z,7.18
2023-04-30T02:24:13.431Z,5.25
2023-04-30T02:26:40.380Z,5.93
2023-04-30T02:29:07.284Z,5.95
2023-04-30T02:31:34.113Z,5.88
2023-04-30T02:34:01.096Z,5.65
2023-04-30T02:36:27.868Z,5.45
2023-04-30T02:38:54.771Z,5.72
2023-04-30T02:41:21.840Z,6.35
2023-04-30T02:43:48.876Z,5.70
2023-04-30T02:46:15.788Z,5.30
2023-04-30T02:48:42.774Z,5.68
2023-04-30T02:51:10.004Z,5.65
2023-04-30T02:53:36.822Z,5.78
2023-04-30T02:56:03.910Z,5.68
2023-04-30T02:58:30.849Z,5.55
2023-04-30T03:00:57.698Z,6.32
2023-04-30T03:03:24.696Z,5.80
2023-04-30T03:05:51.707Z,5.72
2023-04-30T03:08:18.642Z,5.55
2023-04-30T03:10:45.604Z,5.05
2023-04-30T03:13:12.624Z,6.60
2023-04-30T03:15:39.437Z,5.60
2023-04-30T03:18:06.321Z,6.28
2023-04-30T03:20:33.244Z,6.00
2023-04-30T03:23:00.417Z,6.65
2023-04-30T03:25:27.366Z,6.80
2023-04-30T03:27:54.407Z,6.65
2023-04-30T03:30:21.454Z,6.30
2023-04-30T03:32:48.621Z,6.43
2023-04-30T03:35:16.539Z,6.68
2023-04-30T03:37:43.503Z,6.80
2023-04-30T03:40:11.696Z,6.43
2023-04-30T03:42:38.995Z,6.07
2023-04-30T03:45:06.403Z,5.90
2023-04-30T03:47:33.888Z,5.40
2023-04-30T03:50:01.282Z,5.88
2023-04-30T03:52:28.375Z,5.53
2023-04-30T03:54:55.413Z,6.68
2023-04-30T03:57:22.677Z,7.57
2023-04-30T03:59:50.760Z,8.13
2023-04-30T04:02:18.004Z,8.23
2023-04-30T04:04:44.907Z,6.70
2023-04-30T04:07:12.281Z,8.55
2023-04-30T04:09:39.240Z,9.50
2023-04-30T04:12:06.915Z,10.38
2023-04-30T04:14:34.582Z,10.48
2023-04-30T04:17:05.734Z,10.18
2023-04-30T04:19:32.976Z,7.13
2023-04-30T04:22:00.961Z,6.88
2023-04-30T04:24:27.946Z,7.85
2023-04-30T04:26:54.874Z,7.47
2023-04-30T04:29:21.866Z,8.38
2023-04-30T04:31:52.265Z,8.90
2023-04-30T04:34:20.346Z,8.95
2023-04-30T04:36:47.594Z,10.40
2023-04-30T04:39:15.182Z,9.90
2023-04-30T04:41:42.636Z,8.38
2023-04-30T04:44:09.827Z,10.10
2023-04-30T04:46:40.092Z,10.50
2023-04-30T04:49:07.043Z,9.43
2023-04-30T04:51:35.424Z,9.88
2023-04-30T04:54:02.464Z,9.35
2023-04-30T04:56:29.265Z,9.00
2023-04-30T04:58:56.940Z,9.07
2023-04-30T05:01:24.065Z,11.27
2023-04-30T05:03:51.389Z,10.52
2023-04-30T05:06:19.699Z,10.77
2023-04-30T05:08:46.808Z,11.57
2023-04-30T05:11:15.533Z,11.20
2023-04-30T05:13:42.906Z,13.57
2023-04-30T05:16:09.930Z,13.05
2023-04-30T05:18:36.890Z,11.63
2023-04-30T05:21:04.466Z,13.82
2023-04-30T05:23:31.414Z,15.45
2023-04-30T05:25:58.308Z,18.63
2023-04-30T05:28:25.394Z,20.33
2023-04-30T05:30:52.181Z,13.55
2023-04-30T05:33:19.313Z,11.30
2023-04-30T05:35:46.158Z,9.50
2023-04-30T05:38:13.132Z,9.57
2023-04-30T05:40:40.867Z,7.78
2023-04-30T05:43:07.759Z,8.40
2023-04-30T05:45:35.039Z,8.20
2023-04-30T05:48:02.234Z,7.93
2023-04-30T05:50:29.320Z,8.00
2023-04-30T05:52:56.049Z,7.93
2023-04-30T05:55:23.108Z,7.15
2023-04-30T05:57:50.013Z,6.13
2023-04-30T06:00:17.078Z,6.53
2023-04-30T06:02:44.098Z,5.80
2023-04-30T06:05:12.402Z,5.53
2023-04-30T06:07:40.854Z,5.88
2023-04-30T06:10:09.441Z,5.53
2023-04-30T06:12:36.566Z,5.38
2023-04-30T06:15:03.935Z,5.22
2023-04-30T06:17:30.825Z,8.88
2023-04-30T06:20:01.051Z,9.80
2023-04-30T06:22:28.256Z,8.80
2023-04-30T06:24:55.332Z,6.82
2023-04-30T06:27:22.253Z,7.72
2023-04-30T06:29:49.202Z,6.85
2023-04-30T06:32:16.692Z,4.82
2023-04-30T06:34:43.699Z,4.85
2023-04-30T06:37:10.527Z,5.13
2023-04-30T06:39:37.755Z,8.93
2023-04-30T06:42:04.595Z,5.32
2023-04-30T06:44:31.850Z,8.43
2023-04-30T06:46:58.813Z,11.15
2023-04-30T06:49:25.996Z,6.95
2023-04-30T06:51:56.401Z,9.50
2023-04-30T06:54:23.507Z,10.88
2023-04-30T06:56:50.520Z,9.65
2023-04-30T06:59:26.193Z,8.85
2023-04-30T07:01:53.662Z,8.63
2023-04-30T07:04:36.597Z,9.68
2023-04-30T07:07:03.480Z,6.40
2023-04-30T07:09:30.859Z,7.53
2023-04-30T07:11:59.271Z,7.60
2023-04-30T07:14:26.220Z,7.15
2023-04-30T07:16:53.517Z,5.35
2023-04-30T07:19:20.699Z,6.07
2023-04-30T07:21:47.589Z,5.43
2023-04-30T07:24:14.495Z,5.20
2023-04-30T07:26:42.484Z,5.05
2023-04-30T07:29:09.937Z,6.22
2023-04-30T07:31:37.149Z,4.70
2023-04-30T07:34:03.951Z,6.43
2023-04-30T07:36:31.061Z,6.15
2023-04-30T07:38:57.951Z,6.05
2023-04-30T07:41:25.814Z,5.53
2023-04-30T07:43:52.833Z,4.95
2023-04-30T07:46:19.921Z,4.72
2023-04-30T07:48:46.769Z,4.95
2023-04-30T07:51:13.808Z,3.88
2023-04-30T07:53:40.778Z,2.90
2023-04-30T07:56:08.336Z,4.05
2023-04-30T07:58:35.456Z,7.28
2023-04-30T08:01:02.383Z,3.22
2023-04-30T08:03:29.444Z,2.85
2023-04-30T08:05:56.411Z,2.38
2023-04-30T08:08:24.722Z,2.72
2023-04-30T08:10:52.597Z,1.83
2023-04-30T08:13:23.385Z,2.58
2023-04-30T08:15:50.334Z,2.88
2023-04-30T08:18:17.496Z,2.08
2023-04-30T08:20:44.656Z,2.20
2023-04-30T08:23:11.564Z,2.35
2023-04-30T08:25:38.434Z,2.72
2023-04-30T08:28:07.059Z,2.38
2023-04-30T08:30:33.948Z,2.78
2023-04-30T08:33:00.923Z,1.90
2023-04-30T08:35:29.902Z,2.10
2023-04-30T08:37:57.534Z,2.10
2023-04-30T08:40:43.855Z,2.10
2023-04-30T08:43:14.471Z,1.90
2023-04-30T08:45:41.930Z,2.08
2023-04-30T08:48:15.779Z,2.17
2023-04-30T08:50:42.742Z,1.75
2023-04-30T08:53:11.560Z,1.77
2023-04-30T08:55:40.622Z,2.20
2023-04-30T08:58:10.382Z,2.00
2023-04-30T09:00:39.620Z,2.80
2023-04-30T09:03:08.432Z,1.98
2023-04-30T09:05:37.408Z,2.72
2023-04-30T09:08:04.680Z,2.80
2023-04-30T09:10:35.717Z,1.90
2023-04-30T09:13:10.283Z,2.08
2023-04-30T09:15:39.057Z,2.00
2023-04-30T09:18:18.235Z,2.25
2023-04-30T09:21:03.056Z,1.88
2023-04-30T09:23:30.811Z,2.22
2023-04-30T09:25:58.179Z,2.10
2023-04-30T09:28:26.772Z,1.75
2023-04-30T09:30:53.947Z,2.17
2023-04-30T09:33:21.029Z,1.80
2023-04-30T09:35:56.793Z,1.55
2023-04-30T09:38:32.447Z,2.00
2023-04-30T09:41:01.220Z,1.80
2023-04-30T09:43:29.364Z,1.48
2023-04-30T09:45:58.904Z,1.73
2023-04-30T09:48:31.627Z,1.80
2023-04-30T09:50:58.667Z,1.55
2023-04-30T09:53:25.784Z,1.90
2023-04-30T09:55:52.809Z,1.80
2023-04-30T09:58:20.123Z,1.52
2023-04-30T10:00:56.607Z,1.83
2023-04-30T10:03:24.226Z,1.70
2023-04-30T10:05:53.183Z,1.92
2023-04-30T10:08:34.183Z,1.70
2023-04-30T10:11:07.223Z,2.00
2023-04-30T10:13:51.780Z,1.92
2023-04-30T10:16:43.746Z,1.67
2023-04-30T10:19:19.812Z,1.80
2023-04-30T10:21:47.445Z,2.08
2023-04-30T10:24:15.941Z,1.90
2023-04-30T10:26:44.318Z,1.70
2023-04-30T10:29:13.344Z,1.67
2023-04-30T10:31:41.843Z,1.55
2023-04-30T10:34:33.688Z,1.15
2023-04-30T10:37:07.696Z,1.55
2023-04-30T10:39:41.752Z,1.52
2023-04-30T10:42:11.053Z,1.35
2023-04-30T10:44:50.804Z,1.20
2023-04-30T10:47:19.307Z,0.88
2023-04-30T10:49:48.375Z,1.33
2023-04-30T10:52:27.745Z,1.20
2023-04-30T10:54:58.030Z,1.25
2023-04-30T10:57:29.749Z,1.20
2023-04-30T11:00:08.643Z,1.10
2023-04-30T11:02:44.204Z,1.58
2023-04-30T11:05:12.746Z,1.50
2023-04-30T11:07:50.014Z,1.15
2023-04-30T11:10:21.196Z,1.92
2023-04-30T11:12:49.922Z,1.27
2023-04-30T11:15:20.343Z,1.92
2023-04-30T11:17:49.612Z,2.17
2023-04-30T11:20:21.850Z,1.40
2023-04-30T11:22:49.023Z,2.00
2023-04-30T11:25:20.050Z,2.40
2023-04-30T11:27:46.990Z,1.88
2023-04-30T11:30:18.690Z,1.77
2023-04-30T11:32:47.961Z,1.50
2023-04-30T11:35:19.237Z,1.73
2023-04-30T11:37:48.319Z,1.65
2023-04-30T11:40:15.721Z,2.13
2023-04-30T11:42:45.780Z,1.60
2023-04-30T11:45:17.819Z,1.70
2023-04-30T11:47:52.740Z,2.35
2023-04-30T11:50:27.449Z,1.90
2023-04-30T11:56:31.326Z,1.40
2023-04-30T11:58:58.829Z,1.30
2023-04-30T12:01:28.113Z,1.45
2023-04-30T12:03:57.547Z,1.50
2023-04-30T12:06:29.256Z,1.48
2023-04-30T12:08:57.387Z,1.20
2023-04-30T12:11:29.227Z,1.38
2023-04-30T12:14:00.845Z,1.42
2023-04-30T12:16:28.995Z,1.63
2023-04-30T12:18:56.212Z,1.67
2023-04-30T12:21:23.668Z,1.40
2023-04-30T12:23:50.861Z,1.65
2023-04-30T12:26:17.966Z,1.60
2023-04-30T12:28:48.209Z,1.60
2023-04-30T12:31:17.792Z,1.30
2023-04-30T12:33:44.822Z,1.50
2023-04-30T12:36:12.051Z,1.63
2023-04-30T12:38:44.171Z,1.30
2023-04-30T12:41:15.406Z,1.60
2023-04-30T12:46:09.505Z,2.10
2023-04-30T12:48:45.807Z,2.13
2023-04-30T12:51:12.708Z,1.90
2023-04-30T12:53:46.518Z,1.65
2023-04-30T12:56:16.615Z,1.67
2023-04-30T12:58:50.199Z,2.20
2023-04-30T13:01:19.563Z,1.60
2023-04-30T13:03:46.598Z,1.70
2023-04-30T13:06:13.968Z,1.75
2023-04-30T13:08:50.249Z,2.08
2023-04-30T13:11:26.288Z,1.60
2023-04-30T13:13:55.627Z,1.80
2023-04-30T13:16:24.622Z,2.00
2023-04-30T13:18:52.114Z,1.73
2023-04-30T13:21:19.049Z,1.67
2023-04-30T13:23:52.821Z,2.15
2023-04-30T13:26:21.925Z,1.65
2023-04-30T13:28:48.916Z,2.10
2023-04-30T13:31:15.918Z,2.05
2023-04-30T13:33:42.853Z,2.30
2023-04-30T13:36:09.796Z,1.83
2023-04-30T13:38:36.920Z,2.00
2023-04-30T13:41:03.799Z,1.70
2023-04-30T13:43:31.382Z,2.35
2023-04-30T13:45:58.954Z,1.80
2023-04-30T13:48:25.910Z,1.52
2023-04-30T13:50:52.916Z,1.90
2023-04-30T13:53:19.771Z,2.20
2023-04-30T13:55:46.783Z,1.65
2023-04-30T13:58:13.889Z,1.50
2023-04-30T14:00:41.304Z,1.73
2023-04-30T14:03:08.685Z,1.50
2023-04-30T14:05:36.357Z,1.60
2023-04-30T14:08:04.512Z,1.67
2023-04-30T14:10:32.264Z,1.90
2023-04-30T14:12:59.285Z,2.70
2023-04-30T14:15:26.206Z,2.15
2023-04-30T14:17:53.473Z,2.30
2023-04-30T14:20:20.538Z,2.25
2023-04-30T14:22:47.771Z,1.90
2023-04-30T14:25:14.703Z,2.08
2023-04-30T14:27:41.957Z,2.20
2023-04-30T14:30:09.418Z,1.85
2023-04-30T14:32:37.683Z,1.60
2023-04-30T14:35:05.541Z,1.80
2023-04-30T14:37:32.358Z,1.50
2023-04-30T14:40:00.668Z,2.35
2023-04-30T14:42:27.751Z,1.83
2023-04-30T14:44:54.594Z,1.67
2023-04-30T14:47:22.759Z,1.92
2023-04-30T14:49:52.177Z,1.90
2023-04-30T14:52:20.057Z,1.40
2023-04-30T14:54:47.249Z,1.83
2023-04-30T14:57:15.070Z,1.30
2023-04-30T14:59:42.058Z,1.77
2023-04-30T15:02:09.430Z,2.22
2023-04-30T15:04:36.398Z,2.15
2023-04-30T15:07:04.354Z,2.25
2023-04-30T15:09:31.498Z,1.50
2023-04-30T15:11:58.376Z,1.88
2023-04-30T15:14:25.309Z,2.08
2023-04-30T15:16:52.222Z,1.50
2023-04-30T15:19:19.061Z,1.55
2023-04-30T15:21:48.366Z,1.77
2023-04-30T15:24:16.270Z,1.42
2023-04-30T15:26:43.120Z,2.10
2023-04-30T15:29:10.684Z,1.48
2023-04-30T15:31:37.928Z,1.90
2023-04-30T15:34:04.957Z,1.80
2023-04-30T15:36:32.448Z,1.88
2023-04-30T15:38:59.648Z,3.35
2023-04-30T15:41:26.482Z,2.20
2023-04-30T15:43:53.530Z,2.25
2023-04-30T15:46:20.575Z,2.60
2023-04-30T15:48:47.589Z,2.30
2023-04-30T15:51:14.616Z,1.95
2023-04-30T15:53:41.539Z,1.70
2023-04-30T15:56:09.734Z,1.45
2023-04-30T15:58:36.799Z,1.60
2023-04-30T16:01:03.797Z,1.38
2023-04-30T16:03:31.649Z,1.45
2023-04-30T16:06:00.969Z,2.50
2023-04-30T16:08:28.532Z,1.85
2023-04-30T16:10:55.797Z,1.50
2023-04-30T16:13:22.695Z,2.15
2023-04-30T16:15:49.706Z,3.10
2023-04-30T16:18:16.923Z,2.42
2023-04-30T16:20:47.421Z,1.80
2023-04-30T16:23:14.688Z,1.70
2023-04-30T16:25:42.078Z,1.52
2023-04-30T16:28:09.003Z,1.70
2023-04-30T16:30:36.132Z,1.90
2023-04-30T16:33:03.200Z,2.15
2023-04-30T16:35:30.105Z,2.17
2023-04-30T16:37:57.196Z,1.60
2023-04-30T16:40:24.135Z,2.40
2023-04-30T16:42:51.020Z,2.90
2023-04-30T16:45:18.145Z,2.88
2023-04-30T16:47:45.605Z,2.15
2023-04-30T16:50:12.697Z,2.65
2023-04-30T16:52:39.703Z,2.85
2023-04-30T16:55:07.338Z,3.47
2023-04-30T16:57:34.412Z,3.83
2023-04-30T17:00:01.219Z,3.60
2023-04-30T17:02:28.262Z,3.05
2023-04-30T17:04:55.273Z,3.30
2023-04-30T17:07:22.206Z,3.13
2023-04-30T17:09:49.166Z,3.47
2023-04-30T17:12:15.957Z,3.97
2023-04-30T17:14:43.130Z,6.43
2023-04-30T17:17:10.006Z,7.85
2023-04-30T17:19:36.923Z,6.68
2023-04-30T17:22:03.943Z,6.10
2023-04-30T17:24:30.771Z,5.32
2023-04-30T17:26:59.510Z,7.07
2023-04-30T17:29:26.643Z,6.32
2023-04-30T17:31:53.617Z,6.15
2023-04-30T17:34:20.919Z,8.20
2023-04-30T17:36:50.079Z,8.38
2023-04-30T17:39:18.822Z,11.43
2023-04-30T17:41:45.961Z,16.40
2023-04-30T17:44:12.797Z,18.45
2023-04-30T17:46:40.340Z,18.98
2023-04-30T17:49:08.296Z,19.40
2023-04-30T17:51:35.609Z,15.13
2023-04-30T17:54:02.732Z,13.63
2023-04-30T17:56:31.401Z,109.25
2023-04-30T17:58:58.937Z,101.13
2023-04-30T18:01:49.215Z,36.50
2023-04-30T18:05:08.642Z,34.33
2023-04-30T18:08:00.506Z,20.02
2023-04-30T18:10:50.566Z,17.05
2023-04-30T18:13:17.407Z,12.98
2023-04-30T18:15:45.082Z,9.48
2023-04-30T18:18:12.019Z,10.90
2023-04-30T18:20:38.880Z,22.63
2023-04-30T18:23:08.522Z,19.02
2023-04-30T18:25:37.328Z,10.18
2023-04-30T18:28:04.381Z,5.70
2023-04-30T18:30:31.666Z,4.57
2023-04-30T18:32:59.052Z,5.05
2023-04-30T18:35:28.563Z,7.15
2023-04-30T18:38:46.149Z,7.32
2023-04-30T18:41:13.036Z,19.42
2023-04-30T18:43:42.582Z,19.75
2023-04-30T18:46:10.032Z,19.17
2023-04-30T18:48:37.052Z,15.63
2023-04-30T18:51:04.600Z,13.32
2023-04-30T18:53:31.668Z,11.05
2023-04-30T18:55:58.494Z,14.40
2023-04-30T18:58:25.463Z,14.73
2023-04-30T19:00:52.748Z,17.63
2023-04-30T19:03:20.076Z,16.92
2023-04-30T19:05:46.901Z,17.80
2023-04-30T19:08:13.890Z,16.30
2023-04-30T19:10:40.803Z,14.55
2023-04-30T19:13:07.898Z,10.80
2023-04-30T19:15:35.763Z,8.82
2023-04-30T19:18:25.159Z,6.65
2023-04-30T19:21:01.169Z,7.15
2023-04-30T19:23:32.520Z,5.55
2023-04-30T19:28:26.867Z,6.10
2023-04-30T19:30:55.610Z,6.30
2023-04-30T19:36:29.725Z,7.53
2023-04-30T19:38:56.752Z,6.85
2023-04-30T19:41:23.600Z,6.75
2023-04-30T19:43:52.399Z,6.93
2023-04-30T19:46:19.798Z,7.40
2023-04-30T19:48:46.850Z,8.18
2023-04-30T19:51:13.775Z,6.28
2023-04-30T19:53:40.684Z,4.22
2023-04-30T19:56:08.595Z,5.13
2023-04-30T19:58:35.829Z,5.43
2023-04-30T20:01:17.816Z,5.93
2023-04-30T20:03:45.139Z,4.97
2023-04-30T20:06:12.350Z,5.25
2023-04-30T20:08:39.327Z,7.13
2023-04-30T20:11:06.475Z,9.40
2023-04-30T20:13:33.576Z,14.10
2023-04-30T20:16:01.301Z,13.20
2023-04-30T20:18:28.339Z,14.15
2023-04-30T20:21:06.505Z,12.65
2023-04-30T20:23:33.502Z,11.98
2023-04-30T20:26:00.891Z,8.00
2023-04-30T20:28:28.119Z,7.70
2023-04-30T20:30:55.830Z,6.00
2023-04-30T20:33:59.519Z,5.57
2023-04-30T20:36:52.589Z,5.50
2023-04-30T20:39:24.951Z,5.03
2023-04-30T20:41:52.226Z,5.60
2023-04-30T20:44:19.028Z,11.15
2023-04-30T20:46:46.273Z,8.20
2023-04-30T20:49:14.693Z,6.35
2023-04-30T20:51:47.590Z,5.97
2023-04-30T20:56:50.222Z,4.55
2023-04-30T20:59:17.332Z,5.60
2023-04-30T21:01:44.146Z,5.22
2023-04-30T21:04:11.487Z,5.65
2023-04-30T21:06:38.437Z,5.13
2023-04-30T21:09:06.413Z,5.53
2023-04-30T21:11:33.801Z,5.55
2023-04-30T21:14:00.647Z,5.55
2023-04-30T21:16:28.131Z,6.03
2023-04-30T21:18:55.175Z,7.32
2023-04-30T21:21:31.481Z,5.72
2023-04-30T21:24:01.115Z,5.90
2023-04-30T21:26:28.496Z,7.15
2023-04-30T21:28:55.945Z,7.95
2023-04-30T21:31:23.830Z,10.15
2023-04-30T21:33:50.790Z,9.45
2023-04-30T21:36:18.105Z,8.82
2023-04-30T21:38:45.009Z,9.30
2023-04-30T21:41:16.393Z,10.10
2023-04-30T21:43:43.777Z,9.48
2023-04-30T21:46:10.993Z,10.50
2023-04-30T21:48:41.025Z,9.52
2023-04-30T21:51:12.679Z,9.43
2023-04-30T21:53:39.680Z,10.00
2023-04-30T21:56:11.324Z,15.25
2023-04-30T21:58:39.031Z,10.10
2023-04-30T22:01:06.380Z,10.23
2023-04-30T22:03:34.147Z,13.40
2023-04-30T22:06:01.630Z,12.35
2023-04-30T22:08:28.764Z,10.60
2023-04-30T22:10:59.950Z,11.68
2023-04-30T22:13:28.040Z,10.88
2023-04-30T22:15:55.717Z,10.52
2023-04-30T22:18:24.724Z,10.07
2023-04-30T22:20:52.407Z,10.02
2023-04-30T22:23:23.025Z,11.23
2023-04-30T22:25:50.586Z,11.75
2023-04-30T22:28:19.257Z,10.98
2023-04-30T22:30:46.384Z,11.00
2023-04-30T22:33:13.270Z,10.70
2023-04-30T22:35:40.395Z,10.68
2023-04-30T22:38:07.808Z,14.13
2023-04-30T22:40:38.572Z,14.88
2023-04-30T22:43:06.268Z,16.05
2023-04-30T22:45:37.224Z,14.82
2023-04-30T22:48:04.855Z,14.65
2023-04-30T22:50:32.265Z,14.65
2023-04-30T22:52:59.631Z,14.38
2023-04-30T22:55:27.261Z,12.65
2023-04-30T22:57:54.156Z,11.50
2023-04-30T23:00:21.405Z,11.52
2023-04-30T23:02:48.790Z,9.90
2023-04-30T23:05:15.779Z,10.25
2023-04-30T23:07:42.676Z,11.45
2023-04-30T23:10:10.251Z,13.32
2023-04-30T23:12:37.115Z,12.73
2023-04-30T23:15:04.457Z,12.70
2023-04-30T23:17:31.322Z,12.60
2023-04-30T23:19:58.778Z,12.43
2023-04-30T23:22:25.785Z,10.38
2023-04-30T23:24:52.750Z,10.30
2023-04-30T23:27:19.600Z,9.57
2023-04-30T23:29:47.844Z,8.95
2023-04-30T23:32:14.731Z,7.75
2023-04-30T23:34:41.694Z,6.97
2023-04-30T23:37:08.944Z,7.78
2023-04-30T23:39:36.153Z,6.60
2023-04-30T23:42:02.952Z,7.28
2023-04-30T23:44:32.223Z,6.38
2023-04-30T23:47:00.939Z,5.70
2023-04-30T23:49:27.997Z,5.65
2023-04-30T23:51:54.952Z,6.00
2023-04-30T23:54:22.405Z,5.88
2023-04-30T23:56:49.758Z,5.85
2023-04-30T23:59:16.774Z,5.95
